sensor_id;sensor_type;location;lat;lon;timestamp;temperature;humidity
36280;DHT22;22317;47.936;12.742;2023-12-20T00:01:29;0.40;54.90
36280;DHT22;22317;47.936;12.742;2023-12-20T00:11:13;0.30;55.10
36280;DHT22;22317;47.936;12.742;2023-12-20T00:13:39;0.30;55.20
36280;DHT22;22317;47.936;12.742;2023-12-20T00:18:30;0.40;55.10
36280;DHT22;22317;47.936;12.742;2023-12-20T00:20:56;0.40;55.20
36280;DHT22;22317;47.936;12.742;2023-12-20T00:23:22;0.40;55.30
36280;DHT22;22317;47.936;12.742;2023-12-20T00:25:48;0.50;55.40
36280;DHT22;22317;47.936;12.742;2023-12-20T00:28:14;0.50;55.40
36280;DHT22;22317;47.936;12.742;2023-12-20T00:30:40;0.60;55.40
36280;DHT22;22317;47.936;12.742;2023-12-20T00:35:32;0.70;55.40
36280;DHT22;22317;47.936;12.742;2023-12-20T00:37:58;0.80;55.40
36280;DHT22;22317;47.936;12.742;2023-12-20T00:40:24;0.90;55.30
36280;DHT22;22317;47.936;12.742;2023-12-20T00:42:50;1.00;55.20
36280;DHT22;22317;47.936;12.742;2023-12-20T00:47:42;1.20;55.00
36280;DHT22;22317;47.936;12.742;2023-12-20T00:50:08;1.30;54.90
36280;DHT22;22317;47.936;12.742;2023-12-20T00:52:34;1.30;54.70
36280;DHT22;22317;47.936;12.742;2023-12-20T00:59:52;1.50;54.40
36280;DHT22;22317;47.936;12.742;2023-12-20T01:02:18;1.60;54.30
36280;DHT22;22317;47.936;12.742;2023-12-20T01:04:44;1.70;54.20
36280;DHT22;22317;47.936;12.742;2023-12-20T01:12:02;1.80;53.80
36280;DHT22;22317;47.936;12.742;2023-12-20T01:14:28;1.90;53.80
36280;DHT22;22317;47.936;12.742;2023-12-20T01:16:54;2.00;53.70
36280;DHT22;22317;47.936;12.742;2023-12-20T01:19:19;2.00;53.50
36280;DHT22;22317;47.936;12.742;2023-12-20T01:21:45;2.10;53.50
36280;DHT22;22317;47.936;12.742;2023-12-20T01:29:03;2.20;53.10
36280;DHT22;22317;47.936;12.742;2023-12-20T01:36:21;2.40;52.80
36280;DHT22;22317;47.936;12.742;2023-12-20T01:43:39;2.60;52.50
36280;DHT22;22317;47.936;12.742;2023-12-20T01:46:05;2.60;52.30
36280;DHT22;22317;47.936;12.742;2023-12-20T01:48:31;2.70;52.20
36280;DHT22;22317;47.936;12.742;2023-12-20T01:51:00;2.70;52.00
36280;DHT22;22317;47.936;12.742;2023-12-20T01:53:26;2.80;51.90
36280;DHT22;22317;47.936;12.742;2023-12-20T01:55:55;2.90;51.80
36280;DHT22;22317;47.936;12.742;2023-12-20T01:58:23;2.90;51.60
36280;DHT22;22317;47.936;12.742;2023-12-20T02:00:50;2.90;51.40
36280;DHT22;22317;47.936;12.742;2023-12-20T02:03:16;3.00;51.30
36280;DHT22;22317;47.936;12.742;2023-12-20T02:08:08;3.10;51.10
36280;DHT22;22317;47.936;12.742;2023-12-20T02:13:00;3.10;50.80
36280;DHT22;22317;47.936;12.742;2023-12-20T02:22:45;3.30;50.40
36280;DHT22;22317;47.936;12.742;2023-12-20T02:25:10;3.30;50.20
36280;DHT22;22317;47.936;12.742;2023-12-20T02:32:29;3.50;49.80
36280;DHT22;22317;47.936;12.742;2023-12-20T02:34:55;3.50;49.70
36280;DHT22;22317;47.936;12.742;2023-12-20T02:39:47;3.60;49.60
36280;DHT22;22317;47.936;12.742;2023-12-20T02:49:31;3.70;49.30
36280;DHT22;22317;47.936;12.742;2023-12-20T02:56:51;3.80;49.00
36280;DHT22;22317;47.936;12.742;2023-12-20T02:59:16;3.80;48.80
36280;DHT22;22317;47.936;12.742;2023-12-20T03:01:44;3.80;48.80
36280;DHT22;22317;47.936;12.742;2023-12-20T03:04:10;3.90;48.80
36280;DHT22;22317;47.936;12.742;2023-12-20T03:06:36;3.90;48.60
36280;DHT22;22317;47.936;12.742;2023-12-20T03:11:28;4.00;48.50
36280;DHT22;22317;47.936;12.742;2023-12-20T03:13:54;4.00;48.20
36280;DHT22;22317;47.936;12.742;2023-12-20T03:16:20;4.00;48.10
36280;DHT22;22317;47.936;12.742;2023-12-20T03:18:46;4.00;48.60
36280;DHT22;22317;47.936;12.742;2023-12-20T03:23:38;4.00;48.00
36280;DHT22;22317;47.936;12.742;2023-12-20T03:26:07;4.00;47.80
36280;DHT22;22317;47.936;12.742;2023-12-20T03:28:33;4.10;47.90
36280;DHT22;22317;47.936;12.742;2023-12-20T03:30:59;4.00;47.70
36280;DHT22;22317;47.936;12.742;2023-12-20T03:35:50;4.10;47.60
36280;DHT22;22317;47.936;12.742;2023-12-20T03:40:42;4.10;47.60
36280;DHT22;22317;47.936;12.742;2023-12-20T03:43:08;4.10;47.40
36280;DHT22;22317;47.936;12.742;2023-12-20T03:45:34;4.10;47.30
36280;DHT22;22317;47.936;12.742;2023-12-20T03:47:59;4.10;47.30
36280;DHT22;22317;47.936;12.742;2023-12-20T03:50:27;4.10;47.30
36280;DHT22;22317;47.936;12.742;2023-12-20T03:57:45;4.30;47.30
36280;DHT22;22317;47.936;12.742;2023-12-20T04:00:11;4.30;47.20
36280;DHT22;22317;47.936;12.742;2023-12-20T04:02:41;4.30;47.10
36280;DHT22;22317;47.936;12.742;2023-12-20T04:05:08;4.30;47.00
36280;DHT22;22317;47.936;12.742;2023-12-20T04:07:34;4.40;47.00
36280;DHT22;22317;47.936;12.742;2023-12-20T04:10:00;4.40;46.90
36280;DHT22;22317;47.936;12.742;2023-12-20T04:12:28;4.40;46.80
36280;DHT22;22317;47.936;12.742;2023-12-20T04:14:53;4.40;46.80
36280;DHT22;22317;47.936;12.742;2023-12-20T04:17:20;4.40;46.70
36280;DHT22;22317;47.936;12.742;2023-12-20T04:19:48;4.50;46.70
36280;DHT22;22317;47.936;12.742;2023-12-20T04:22:14;4.50;46.60
36280;DHT22;22317;47.936;12.742;2023-12-20T04:24:40;4.50;46.70
36280;DHT22;22317;47.936;12.742;2023-12-20T04:27:07;4.60;46.70
36280;DHT22;22317;47.936;12.742;2023-12-20T04:29:33;4.60;46.60
36280;DHT22;22317;47.936;12.742;2023-12-20T04:31:59;4.60;46.60
36280;DHT22;22317;47.936;12.742;2023-12-20T04:34:25;4.70;46.40
36280;DHT22;22317;47.936;12.742;2023-12-20T04:36:52;4.60;46.40
36280;DHT22;22317;47.936;12.742;2023-12-20T04:39:17;4.70;46.50
36280;DHT22;22317;47.936;12.742;2023-12-20T04:41:43;4.70;46.60
36280;DHT22;22317;47.936;12.742;2023-12-20T04:44:09;4.70;46.60
36280;DHT22;22317;47.936;12.742;2023-12-20T04:46:36;4.80;46.60
36280;DHT22;22317;47.936;12.742;2023-12-20T04:49:02;4.80;46.60
36280;DHT22;22317;47.936;12.742;2023-12-20T04:51:27;4.80;46.60
36280;DHT22;22317;47.936;12.742;2023-12-20T04:53:53;4.80;46.60
36280;DHT22;22317;47.936;12.742;2023-12-20T04:56:19;4.90;46.60
36280;DHT22;22317;47.936;12.742;2023-12-20T04:58:45;4.90;46.40
36280;DHT22;22317;47.936;12.742;2023-12-20T05:01:11;4.90;46.40
36280;DHT22;22317;47.936;12.742;2023-12-20T05:03:37;4.90;46.90
36280;DHT22;22317;47.936;12.742;2023-12-20T05:06:03;4.90;46.40
36280;DHT22;22317;47.936;12.742;2023-12-20T05:08:29;4.90;46.30
36280;DHT22;22317;47.936;12.742;2023-12-20T05:10:55;4.90;46.40
36280;DHT22;22317;47.936;12.742;2023-12-20T05:13:21;4.90;46.50
36280;DHT22;22317;47.936;12.742;2023-12-20T05:15:46;4.90;47.00
36280;DHT22;22317;47.936;12.742;2023-12-20T05:18:13;4.90;46.90
36280;DHT22;22317;47.936;12.742;2023-12-20T05:20:39;4.90;46.50
36280;DHT22;22317;47.936;12.742;2023-12-20T05:23:05;4.90;46.70
36280;DHT22;22317;47.936;12.742;2023-12-20T05:25:31;4.90;46.70
36280;DHT22;22317;47.936;12.742;2023-12-20T05:27:56;4.90;47.00
36280;DHT22;22317;47.936;12.742;2023-12-20T05:30:22;4.90;47.10
36280;DHT22;22317;47.936;12.742;2023-12-20T05:32:48;4.90;47.20
36280;DHT22;22317;47.936;12.742;2023-12-20T05:35:14;4.90;47.30
36280;DHT22;22317;47.936;12.742;2023-12-20T05:37:41;4.80;47.50
36280;DHT22;22317;47.936;12.742;2023-12-20T05:40:07;4.80;47.70
36280;DHT22;22317;47.936;12.742;2023-12-20T05:42:38;4.80;48.00
36280;DHT22;22317;47.936;12.742;2023-12-20T05:45:05;4.80;48.10
36280;DHT22;22317;47.936;12.742;2023-12-20T05:47:31;4.80;48.20
36280;DHT22;22317;47.936;12.742;2023-12-20T05:49:57;4.80;48.40
36280;DHT22;22317;47.936;12.742;2023-12-20T05:52:22;4.80;48.90
36280;DHT22;22317;47.936;12.742;2023-12-20T05:57:14;4.80;48.80
36280;DHT22;22317;47.936;12.742;2023-12-20T05:59:40;4.80;48.80
36280;DHT22;22317;47.936;12.742;2023-12-20T06:02:06;4.90;49.30
36280;DHT22;22317;47.936;12.742;2023-12-20T06:04:32;4.90;49.00
36280;DHT22;22317;47.936;12.742;2023-12-20T06:06:58;4.90;49.00
36280;DHT22;22317;47.936;12.742;2023-12-20T06:09:23;4.90;49.40
36280;DHT22;22317;47.936;12.742;2023-12-20T06:11:50;4.90;49.50
36280;DHT22;22317;47.936;12.742;2023-12-20T06:14:16;4.90;49.30
36280;DHT22;22317;47.936;12.742;2023-12-20T06:19:09;4.90;49.40
36280;DHT22;22317;47.936;12.742;2023-12-20T06:21:35;4.90;49.70
36280;DHT22;22317;47.936;12.742;2023-12-20T06:28:53;4.80;50.60
36280;DHT22;22317;47.936;12.742;2023-12-20T06:33:45;4.80;51.30
36280;DHT22;22317;47.936;12.742;2023-12-20T06:36:11;4.70;51.60
36280;DHT22;22317;47.936;12.742;2023-12-20T06:43:31;4.70;52.20
36280;DHT22;22317;47.936;12.742;2023-12-20T06:45:58;4.60;52.50
36280;DHT22;22317;47.936;12.742;2023-12-20T06:48:24;4.50;52.70
36280;DHT22;22317;47.936;12.742;2023-12-20T06:50:50;4.50;53.00
36280;DHT22;22317;47.936;12.742;2023-12-20T06:55:42;4.50;53.50
36280;DHT22;22317;47.936;12.742;2023-12-20T06:58:07;4.50;53.70
36280;DHT22;22317;47.936;12.742;2023-12-20T07:00:34;4.40;53.90
36280;DHT22;22317;47.936;12.742;2023-12-20T07:03:00;4.40;54.10
36280;DHT22;22317;47.936;12.742;2023-12-20T07:05:26;4.40;54.30
36280;DHT22;22317;47.936;12.742;2023-12-20T07:07:52;4.40;54.40
36280;DHT22;22317;47.936;12.742;2023-12-20T07:10:18;4.30;54.70
36280;DHT22;22317;47.936;12.742;2023-12-20T07:15:11;4.30;55.20
36280;DHT22;22317;47.936;12.742;2023-12-20T07:17:37;4.20;55.50
36280;DHT22;22317;47.936;12.742;2023-12-20T07:20:03;4.20;55.60
36280;DHT22;22317;47.936;12.742;2023-12-20T07:22:30;4.20;55.70
36280;DHT22;22317;47.936;12.742;2023-12-20T07:24:59;4.20;55.80
36280;DHT22;22317;47.936;12.742;2023-12-20T07:27:25;4.20;56.30
36280;DHT22;22317;47.936;12.742;2023-12-20T07:29:51;4.10;56.10
36280;DHT22;22317;47.936;12.742;2023-12-20T07:32:17;4.10;56.20
36280;DHT22;22317;47.936;12.742;2023-12-20T07:34:43;4.00;56.20
36280;DHT22;22317;47.936;12.742;2023-12-20T07:37:09;4.00;56.40
36280;DHT22;22317;47.936;12.742;2023-12-20T07:39:38;3.90;56.60
36280;DHT22;22317;47.936;12.742;2023-12-20T07:44:31;3.80;56.80
36280;DHT22;22317;47.936;12.742;2023-12-20T07:46:57;3.80;57.10
36280;DHT22;22317;47.936;12.742;2023-12-20T07:49:23;3.70;57.30
36280;DHT22;22317;47.936;12.742;2023-12-20T07:54:16;3.80;57.50
36280;DHT22;22317;47.936;12.742;2023-12-20T07:56:42;3.70;57.50
36280;DHT22;22317;47.936;12.742;2023-12-20T07:59:07;3.70;57.50
36280;DHT22;22317;47.936;12.742;2023-12-20T08:01:33;3.60;57.70
36280;DHT22;22317;47.936;12.742;2023-12-20T08:03:59;3.60;58.00
36280;DHT22;22317;47.936;12.742;2023-12-20T08:06:24;3.60;58.00
36280;DHT22;22317;47.936;12.742;2023-12-20T08:08:50;3.60;58.10
36280;DHT22;22317;47.936;12.742;2023-12-20T08:13:43;3.50;58.30
36280;DHT22;22317;47.936;12.742;2023-12-20T08:16:08;3.50;58.40
36280;DHT22;22317;47.936;12.742;2023-12-20T08:21:01;3.50;58.50
36280;DHT22;22317;47.936;12.742;2023-12-20T08:23:27;3.50;58.70
36280;DHT22;22317;47.936;12.742;2023-12-20T08:25:53;3.50;58.80
36280;DHT22;22317;47.936;12.742;2023-12-20T08:28:18;3.50;58.90
36280;DHT22;22317;47.936;12.742;2023-12-20T08:30:44;3.50;58.90
36280;DHT22;22317;47.936;12.742;2023-12-20T08:33:10;3.50;58.80
36280;DHT22;22317;47.936;12.742;2023-12-20T08:35:39;3.50;59.00
36280;DHT22;22317;47.936;12.742;2023-12-20T08:38:05;3.50;58.90
36280;DHT22;22317;47.936;12.742;2023-12-20T08:40:31;3.50;59.00
36280;DHT22;22317;47.936;12.742;2023-12-20T08:42:57;3.50;59.20
36280;DHT22;22317;47.936;12.742;2023-12-20T08:45:23;3.50;59.30
36280;DHT22;22317;47.936;12.742;2023-12-20T08:52:41;3.50;59.40
36280;DHT22;22317;47.936;12.742;2023-12-20T08:55:07;3.50;59.30
36280;DHT22;22317;47.936;12.742;2023-12-20T08:57:33;3.50;59.40
36280;DHT22;22317;47.936;12.742;2023-12-20T09:02:25;3.50;59.40
36280;DHT22;22317;47.936;12.742;2023-12-20T09:04:52;3.50;59.70
36280;DHT22;22317;47.936;12.742;2023-12-20T09:07:22;3.50;59.80
36280;DHT22;22317;47.936;12.742;2023-12-20T09:09:48;3.60;59.80
36280;DHT22;22317;47.936;12.742;2023-12-20T09:12:29;3.60;59.80
36280;DHT22;22317;47.936;12.742;2023-12-20T09:14:54;3.70;59.80
36280;DHT22;22317;47.936;12.742;2023-12-20T09:19:48;3.70;59.80
36280;DHT22;22317;47.936;12.742;2023-12-20T09:27:07;3.70;59.90
36280;DHT22;22317;47.936;12.742;2023-12-20T09:29:32;3.70;60.00
36280;DHT22;22317;47.936;12.742;2023-12-20T09:34:24;3.70;60.00
36280;DHT22;22317;47.936;12.742;2023-12-20T09:36:51;3.70;60.00
36280;DHT22;22317;47.936;12.742;2023-12-20T09:39:19;3.60;60.00
36280;DHT22;22317;47.936;12.742;2023-12-20T09:42:01;3.70;60.20
36280;DHT22;22317;47.936;12.742;2023-12-20T09:44:27;3.70;60.40
36280;DHT22;22317;47.936;12.742;2023-12-20T09:46:55;3.70;60.40
36280;DHT22;22317;47.936;12.742;2023-12-20T09:49:21;3.70;61.00
36280;DHT22;22317;47.936;12.742;2023-12-20T09:51:47;3.60;60.20
36280;DHT22;22317;47.936;12.742;2023-12-20T09:54:17;3.60;60.30
36280;DHT22;22317;47.936;12.742;2023-12-20T09:56:44;3.60;60.10
36280;DHT22;22317;47.936;12.742;2023-12-20T09:59:10;3.60;60.20
36280;DHT22;22317;47.936;12.742;2023-12-20T10:01:39;3.50;60.40
36280;DHT22;22317;47.936;12.742;2023-12-20T10:04:06;3.50;60.60
36280;DHT22;22317;47.936;12.742;2023-12-20T10:06:46;3.50;60.80
36280;DHT22;22317;47.936;12.742;2023-12-20T10:11:40;3.50;60.60
36280;DHT22;22317;47.936;12.742;2023-12-20T10:14:06;3.50;60.50
36280;DHT22;22317;47.936;12.742;2023-12-20T10:16:33;3.40;60.60
36280;DHT22;22317;47.936;12.742;2023-12-20T10:19:00;3.40;60.70
36280;DHT22;22317;47.936;12.742;2023-12-20T10:21:26;3.40;60.80
36280;DHT22;22317;47.936;12.742;2023-12-20T10:23:54;3.40;60.90
36280;DHT22;22317;47.936;12.742;2023-12-20T10:26:26;3.40;60.90
36280;DHT22;22317;47.936;12.742;2023-12-20T10:29:00;3.30;60.90
36280;DHT22;22317;47.936;12.742;2023-12-20T10:31:33;3.30;61.00
36280;DHT22;22317;47.936;12.742;2023-12-20T10:34:00;3.30;61.10
36280;DHT22;22317;47.936;12.742;2023-12-20T10:36:28;3.40;61.40
36280;DHT22;22317;47.936;12.742;2023-12-20T10:38:54;3.40;61.40
36280;DHT22;22317;47.936;12.742;2023-12-20T10:41:25;3.40;61.20
36280;DHT22;22317;47.936;12.742;2023-12-20T10:44:00;3.40;61.30
36280;DHT22;22317;47.936;12.742;2023-12-20T10:46:27;3.40;61.20
36280;DHT22;22317;47.936;12.742;2023-12-20T10:48:54;3.40;61.40
36280;DHT22;22317;47.936;12.742;2023-12-20T10:51:21;3.30;61.40
36280;DHT22;22317;47.936;12.742;2023-12-20T10:53:48;3.40;61.60
36280;DHT22;22317;47.936;12.742;2023-12-20T10:56:19;3.40;61.40
36280;DHT22;22317;47.936;12.742;2023-12-20T10:58:45;3.40;61.40
36280;DHT22;22317;47.936;12.742;2023-12-20T11:01:14;3.30;61.50
36280;DHT22;22317;47.936;12.742;2023-12-20T11:03:53;3.30;61.60
36280;DHT22;22317;47.936;12.742;2023-12-20T11:07:01;3.40;61.90
36280;DHT22;22317;47.936;12.742;2023-12-20T11:09:26;3.40;61.90
36280;DHT22;22317;47.936;12.742;2023-12-20T11:17:11;3.50;61.90
36280;DHT22;22317;47.936;12.742;2023-12-20T11:22:30;3.60;61.70
36280;DHT22;22317;47.936;12.742;2023-12-20T11:25:10;3.60;61.60
36280;DHT22;22317;47.936;12.742;2023-12-20T11:27:42;3.60;61.70
36280;DHT22;22317;47.936;12.742;2023-12-20T11:30:09;3.60;61.70
36280;DHT22;22317;47.936;12.742;2023-12-20T11:32:36;3.80;61.60
36280;DHT22;22317;47.936;12.742;2023-12-20T11:37:38;3.60;61.70
36280;DHT22;22317;47.936;12.742;2023-12-20T11:40:11;3.60;61.80
36280;DHT22;22317;47.936;12.742;2023-12-20T11:42:44;3.50;61.70
36280;DHT22;22317;47.936;12.742;2023-12-20T11:47:37;3.60;61.90
36280;DHT22;22317;47.936;12.742;2023-12-20T11:50:03;3.50;61.70
36280;DHT22;22317;47.936;12.742;2023-12-20T11:52:30;3.50;61.70
36280;DHT22;22317;47.936;12.742;2023-12-20T11:54:57;3.50;61.90
36280;DHT22;22317;47.936;12.742;2023-12-20T11:57:23;3.60;62.10
36280;DHT22;22317;47.936;12.742;2023-12-20T11:59:49;3.60;62.20
36280;DHT22;22317;47.936;12.742;2023-12-20T12:04:44;3.70;62.20
36280;DHT22;22317;47.936;12.742;2023-12-20T12:09:35;3.70;62.10
36280;DHT22;22317;47.936;12.742;2023-12-20T12:14:27;3.70;62.20
36280;DHT22;22317;47.936;12.742;2023-12-20T12:16:53;3.70;62.10
36280;DHT22;22317;47.936;12.742;2023-12-20T12:19:22;3.70;62.10
36280;DHT22;22317;47.936;12.742;2023-12-20T12:21:47;3.70;62.30
36280;DHT22;22317;47.936;12.742;2023-12-20T12:24:13;3.80;62.20
36280;DHT22;22317;47.936;12.742;2023-12-20T12:26:40;3.70;62.20
36280;DHT22;22317;47.936;12.742;2023-12-20T12:29:09;3.50;62.00
36280;DHT22;22317;47.936;12.742;2023-12-20T12:31:35;3.70;62.20
36280;DHT22;22317;47.936;12.742;2023-12-20T12:34:01;3.70;62.30
36280;DHT22;22317;47.936;12.742;2023-12-20T12:36:28;3.70;62.40
36280;DHT22;22317;47.936;12.742;2023-12-20T12:38:56;3.80;62.40
36280;DHT22;22317;47.936;12.742;2023-12-20T12:43:49;3.70;62.30
36280;DHT22;22317;47.936;12.742;2023-12-20T12:46:15;3.80;62.50
36280;DHT22;22317;47.936;12.742;2023-12-20T12:53:38;3.80;62.30
36280;DHT22;22317;47.936;12.742;2023-12-20T12:56:04;3.80;62.50
36280;DHT22;22317;47.936;12.742;2023-12-20T12:58:29;3.70;62.40
36280;DHT22;22317;47.936;12.742;2023-12-20T13:00:55;3.70;62.50
36280;DHT22;22317;47.936;12.742;2023-12-20T13:10:41;3.80;62.80
36280;DHT22;22317;47.936;12.742;2023-12-20T13:13:07;3.90;63.40
36280;DHT22;22317;47.936;12.742;2023-12-20T13:15:33;3.80;63.20
36280;DHT22;22317;47.936;12.742;2023-12-20T13:18:00;3.80;63.10
36280;DHT22;22317;47.936;12.742;2023-12-20T13:20:25;3.70;62.80
36280;DHT22;22317;47.936;12.742;2023-12-20T13:22:51;3.70;62.80
36280;DHT22;22317;47.936;12.742;2023-12-20T13:25:17;3.60;62.60
36280;DHT22;22317;47.936;12.742;2023-12-20T13:30:09;3.60;62.70
36280;DHT22;22317;47.936;12.742;2023-12-20T13:35:02;3.50;62.80
36280;DHT22;22317;47.936;12.742;2023-12-20T13:37:29;3.50;62.90
36280;DHT22;22317;47.936;12.742;2023-12-20T13:39:55;3.50;62.90
36280;DHT22;22317;47.936;12.742;2023-12-20T13:42:21;3.50;63.10
36280;DHT22;22317;47.936;12.742;2023-12-20T13:44:47;3.60;63.20
36280;DHT22;22317;47.936;12.742;2023-12-20T13:47:12;3.60;63.10
36280;DHT22;22317;47.936;12.742;2023-12-20T13:49:38;3.60;63.00
36280;DHT22;22317;47.936;12.742;2023-12-20T13:56:56;3.60;62.90
36280;DHT22;22317;47.936;12.742;2023-12-20T13:59:23;3.60;62.90
36280;DHT22;22317;47.936;12.742;2023-12-20T14:01:49;3.60;62.90
36280;DHT22;22317;47.936;12.742;2023-12-20T14:04:17;3.60;62.90
36280;DHT22;22317;47.936;12.742;2023-12-20T14:06:42;3.60;62.80
36280;DHT22;22317;47.936;12.742;2023-12-20T14:11:34;3.70;62.90
36280;DHT22;22317;47.936;12.742;2023-12-20T14:14:04;3.80;62.90
36280;DHT22;22317;47.936;12.742;2023-12-20T14:16:30;3.80;62.60
36280;DHT22;22317;47.936;12.742;2023-12-20T14:18:56;3.80;62.50
36280;DHT22;22317;47.936;12.742;2023-12-20T14:21:23;3.80;62.60
36280;DHT22;22317;47.936;12.742;2023-12-20T14:26:18;3.90;62.40
36280;DHT22;22317;47.936;12.742;2023-12-20T14:31:09;3.80;62.30
36280;DHT22;22317;47.936;12.742;2023-12-20T14:36:05;3.80;62.40
36280;DHT22;22317;47.936;12.742;2023-12-20T14:38:34;3.80;62.30
36280;DHT22;22317;47.936;12.742;2023-12-20T14:41:00;3.80;62.30
36280;DHT22;22317;47.936;12.742;2023-12-20T14:43:28;3.80;62.30
36280;DHT22;22317;47.936;12.742;2023-12-20T14:45:55;3.70;62.30
36280;DHT22;22317;47.936;12.742;2023-12-20T14:48:20;3.70;62.40
36280;DHT22;22317;47.936;12.742;2023-12-20T14:53:14;3.80;62.70
36280;DHT22;22317;47.936;12.742;2023-12-20T14:55:44;3.80;63.20
36280;DHT22;22317;47.936;12.742;2023-12-20T14:58:10;3.90;62.70
36280;DHT22;22317;47.936;12.742;2023-12-20T15:00:36;3.90;62.40
36280;DHT22;22317;47.936;12.742;2023-12-20T15:03:02;3.90;62.10
36280;DHT22;22317;47.936;12.742;2023-12-20T15:05:29;3.90;62.00
36280;DHT22;22317;47.936;12.742;2023-12-20T15:07:55;3.80;61.50
36280;DHT22;22317;47.936;12.742;2023-12-20T15:10:21;3.70;61.50
36280;DHT22;22317;47.936;12.742;2023-12-20T15:17:39;3.50;61.10
36280;DHT22;22317;47.936;12.742;2023-12-20T15:20:05;3.40;61.20
36280;DHT22;22317;47.936;12.742;2023-12-20T15:22:31;3.30;61.30
36280;DHT22;22317;47.936;12.742;2023-12-20T15:27:26;3.20;61.40
36280;DHT22;22317;47.936;12.742;2023-12-20T15:32:18;3.00;61.40
36280;DHT22;22317;47.936;12.742;2023-12-20T15:34:45;2.90;61.30
36280;DHT22;22317;47.936;12.742;2023-12-20T15:37:11;2.90;61.50
36280;DHT22;22317;47.936;12.742;2023-12-20T15:39:37;2.80;61.60
36280;DHT22;22317;47.936;12.742;2023-12-20T15:42:03;2.80;61.80
36280;DHT22;22317;47.936;12.742;2023-12-20T15:44:28;2.70;61.80
36280;DHT22;22317;47.936;12.742;2023-12-20T15:46:54;2.70;62.00
36280;DHT22;22317;47.936;12.742;2023-12-20T15:49:20;2.70;62.10
36280;DHT22;22317;47.936;12.742;2023-12-20T15:51:46;2.70;62.10
36280;DHT22;22317;47.936;12.742;2023-12-20T15:54:12;2.70;62.10
36280;DHT22;22317;47.936;12.742;2023-12-20T15:59:06;2.60;62.10
36280;DHT22;22317;47.936;12.742;2023-12-20T16:06:27;2.60;62.40
36280;DHT22;22317;47.936;12.742;2023-12-20T16:08:54;2.60;62.50
36280;DHT22;22317;47.936;12.742;2023-12-20T16:11:19;2.60;62.50
36280;DHT22;22317;47.936;12.742;2023-12-20T16:16:12;2.60;62.60
36280;DHT22;22317;47.936;12.742;2023-12-20T16:18:38;2.60;62.50
36280;DHT22;22317;47.936;12.742;2023-12-20T16:21:04;2.60;62.50
36280;DHT22;22317;47.936;12.742;2023-12-20T16:23:30;2.60;62.60
36280;DHT22;22317;47.936;12.742;2023-12-20T16:25:57;2.60;62.50
36280;DHT22;22317;47.936;12.742;2023-12-20T16:30:49;2.50;62.40
36280;DHT22;22317;47.936;12.742;2023-12-20T16:38:08;2.50;62.60
36280;DHT22;22317;47.936;12.742;2023-12-20T16:43:00;2.50;62.50
36280;DHT22;22317;47.936;12.742;2023-12-20T16:47:57;2.50;62.50
36280;DHT22;22317;47.936;12.742;2023-12-20T16:50:23;2.60;62.60
36280;DHT22;22317;47.936;12.742;2023-12-20T16:52:48;2.60;62.60
36280;DHT22;22317;47.936;12.742;2023-12-20T16:55:17;2.60;62.50
36280;DHT22;22317;47.936;12.742;2023-12-20T17:02:37;2.60;62.60
36280;DHT22;22317;47.936;12.742;2023-12-20T17:05:03;2.60;62.60
36280;DHT22;22317;47.936;12.742;2023-12-20T17:07:28;2.60;62.60
36280;DHT22;22317;47.936;12.742;2023-12-20T17:09:54;2.60;62.70
36280;DHT22;22317;47.936;12.742;2023-12-20T17:14:46;2.60;62.60
36280;DHT22;22317;47.936;12.742;2023-12-20T17:19:38;2.60;62.60
36280;DHT22;22317;47.936;12.742;2023-12-20T17:22:04;2.50;62.70
36280;DHT22;22317;47.936;12.742;2023-12-20T17:24:30;2.60;62.70
36280;DHT22;22317;47.936;12.742;2023-12-20T17:29:21;2.50;62.60
36280;DHT22;22317;47.936;12.742;2023-12-20T17:31:47;2.50;62.50
36280;DHT22;22317;47.936;12.742;2023-12-20T17:36:40;2.40;62.70
36280;DHT22;22317;47.936;12.742;2023-12-20T17:44:01;2.40;62.60
36280;DHT22;22317;47.936;12.742;2023-12-20T17:51:21;2.40;62.70
36280;DHT22;22317;47.936;12.742;2023-12-20T17:53:47;2.40;62.80
36280;DHT22;22317;47.936;12.742;2023-12-20T17:58:41;2.40;62.70
36280;DHT22;22317;47.936;12.742;2023-12-20T18:10:51;2.40;62.70
36280;DHT22;22317;47.936;12.742;2023-12-20T18:13:17;2.40;62.70
36280;DHT22;22317;47.936;12.742;2023-12-20T18:18:12;2.40;62.60
36280;DHT22;22317;47.936;12.742;2023-12-20T18:20:38;2.30;62.50
36280;DHT22;22317;47.936;12.742;2023-12-20T18:23:04;2.40;62.60
36280;DHT22;22317;47.936;12.742;2023-12-20T18:25:30;2.40;62.60
36280;DHT22;22317;47.936;12.742;2023-12-20T18:37:42;2.30;61.80
36280;DHT22;22317;47.936;12.742;2023-12-20T18:42:36;2.20;62.10
36280;DHT22;22317;47.936;12.742;2023-12-20T18:45:02;2.20;62.30
36280;DHT22;22317;47.936;12.742;2023-12-20T18:47:30;2.10;62.40
36280;DHT22;22317;47.936;12.742;2023-12-20T18:49:55;2.10;62.40
36280;DHT22;22317;47.936;12.742;2023-12-20T18:52:21;2.10;62.40
36280;DHT22;22317;47.936;12.742;2023-12-20T18:57:14;2.10;62.40
36280;DHT22;22317;47.936;12.742;2023-12-20T18:59:40;2.00;62.30
36280;DHT22;22317;47.936;12.742;2023-12-20T19:02:06;2.10;62.40
36280;DHT22;22317;47.936;12.742;2023-12-20T19:09:26;1.90;62.30
36280;DHT22;22317;47.936;12.742;2023-12-20T19:11:53;1.90;62.30
36280;DHT22;22317;47.936;12.742;2023-12-20T19:16:48;1.90;62.20
36280;DHT22;22317;47.936;12.742;2023-12-20T19:19:15;1.90;62.20
36280;DHT22;22317;47.936;12.742;2023-12-20T19:21:40;1.80;62.00
36280;DHT22;22317;47.936;12.742;2023-12-20T19:26:34;1.80;61.90
36280;DHT22;22317;47.936;12.742;2023-12-20T19:28:59;1.70;61.70
36280;DHT22;22317;47.936;12.742;2023-12-20T19:36:21;1.70;61.90
36280;DHT22;22317;47.936;12.742;2023-12-20T19:41:13;1.70;61.90
36280;DHT22;22317;47.936;12.742;2023-12-20T19:43:39;1.70;61.90
36280;DHT22;22317;47.936;12.742;2023-12-20T19:46:08;1.80;61.90
36280;DHT22;22317;47.936;12.742;2023-12-20T19:53:27;1.90;61.70
36280;DHT22;22317;47.936;12.742;2023-12-20T19:55:53;1.90;61.60
36280;DHT22;22317;47.936;12.742;2023-12-20T20:03:11;1.80;61.30
36280;DHT22;22317;47.936;12.742;2023-12-20T20:08:04;1.80;61.30
36280;DHT22;22317;47.936;12.742;2023-12-20T20:10:30;1.80;61.30
36280;DHT22;22317;47.936;12.742;2023-12-20T20:12:56;1.80;61.40
36280;DHT22;22317;47.936;12.742;2023-12-20T20:15:21;1.80;61.30
36280;DHT22;22317;47.936;12.742;2023-12-20T20:17:47;1.90;61.20
36280;DHT22;22317;47.936;12.742;2023-12-20T20:20:13;1.90;61.10
36280;DHT22;22317;47.936;12.742;2023-12-20T20:27:35;1.90;61.00
36280;DHT22;22317;47.936;12.742;2023-12-20T20:30:01;1.90;60.80
36280;DHT22;22317;47.936;12.742;2023-12-20T20:32:27;1.90;61.00
36280;DHT22;22317;47.936;12.742;2023-12-20T20:34:54;1.90;60.90
36280;DHT22;22317;47.936;12.742;2023-12-20T20:37:19;1.90;60.90
36280;DHT22;22317;47.936;12.742;2023-12-20T20:42:11;1.90;60.90